Time;durP1;ratioP1;P1;durP2;ratioP2;P2;SDS_P1;SDS_P2;PMS_P1;PMS_P2;Temp;Humidity;BMP_temperature;BMP_pressure;BME280_temperature;BME280_humidity;BME280_pressure;Samples;Min_cycle;Max_cycle;Signal;HPM_P1;HPM_P2
2023/06/03 00:02:41;;;;;;;7.60;5.20;;;;;;;9.13;75.07;99195.33;225364;1283;24221;-68
2023/06/03 00:07:51;;;;;;;7.50;5.10;;;;;;;9.08;74.91;99195.70;225405;1283;22572;-68
2023/06/03 00:12:53;;;;;;;8.70;4.80;;;;;;;9.04;74.67;99198.00;225433;1283;22549;-69
2023/06/03 00:17:56;;;;;;;11.10;4.40;;;;;;;8.98;74.48;99197.21;225430;1278;22539;-68
2023/06/03 00:23:03;;;;;;;27.20;6.80;;;;;;;8.91;73.60;99200.81;225325;1283;22539;-69
2023/06/03 00:28:06;;;;;;;7.80;3.70;;;;;;;8.85;72.71;99198.09;225332;1278;25403;-69
2023/06/03 00:33:08;;;;;;;6.80;3.40;;;;;;;8.79;72.33;99200.59;225273;1281;22597;-70
2023/06/03 00:38:11;;;;;;;6.10;3.70;;;;;;;8.73;71.96;99198.46;225359;1279;22536;-68
2023/06/03 00:43:15;;;;;;;5.80;3.20;;;;;;;8.68;71.78;99200.66;225421;1280;22580;-68
2023/06/03 00:48:18;;;;;;;6.50;3.30;;;;;;;8.58;71.16;99208.24;225349;1283;22642;-69
2023/06/03 00:53:28;;;;;;;8.10;3.80;;;;;;;8.49;70.91;99211.13;225435;1283;22536;-68
2023/06/03 00:58:31;;;;;;;7.00;3.50;;;;;;;8.40;70.79;99209.52;225449;1279;22563;-68
2023/06/03 01:03:42;;;;;;;8.60;3.60;;;;;;;8.33;70.75;99209.16;225378;1283;22531;-68
2023/06/03 01:08:45;;;;;;;6.20;3.90;;;;;;;8.33;70.27;99211.30;225452;1280;22524;-68
2023/06/03 01:14:17;;;;;;;5.70;3.50;;;;;;;8.26;70.33;99212.17;225489;1283;22540;-70
2023/06/03 01:19:38;;;;;;;7.80;4.20;;;;;;;8.23;69.93;99211.27;225415;1283;22563;-68
2023/06/03 01:24:42;;;;;;;10.70;4.20;;;;;;;8.16;69.57;99215.13;225378;1281;22571;-67
2023/06/03 01:30:04;;;;;;;10.00;4.80;;;;;;;8.12;69.71;99219.26;225287;1281;22530;-68
2023/06/03 01:35:08;;;;;;;7.30;4.10;;;;;;;8.08;69.54;99223.18;225313;1281;22536;-68
2023/06/03 01:40:12;;;;;;;8.50;4.10;;;;;;;7.99;69.65;99222.34;225393;1281;22524;-68
2023/06/03 01:45:14;;;;;;;7.30;3.40;;;;;;;7.92;68.99;99229.45;225426;1283;22549;-68
2023/06/03 01:50:17;;;;;;;6.70;3.10;;;;;;;7.83;69.18;99227.27;225437;1280;22558;-67
2023/06/03 01:55:19;;;;;;;6.70;3.00;;;;;;;7.72;68.85;99225.73;225344;1281;25291;-70
2023/06/03 02:00:22;;;;;;;5.30;2.60;;;;;;;7.61;69.17;99227.20;225346;1281;22569;-69
2023/06/03 02:05:25;;;;;;;6.80;2.40;;;;;;;7.52;68.96;99224.02;225363;1273;22546;-68
2023/06/03 02:10:29;;;;;;;6.50;2.10;;;;;;;7.42;69.23;99229.19;225348;1283;22639;-68
2023/06/03 02:15:37;;;;;;;6.20;2.30;;;;;;;7.34;69.21;99234.44;225353;1278;22619;-69
2023/06/03 02:20:52;;;;;;;3.50;1.80;;;;;;;7.27;69.12;99237.58;225368;1283;22721;-67
2023/06/03 02:25:57;;;;;;;2.80;1.80;;;;;;;7.20;69.45;99243.23;225407;1283;23262;-68
2023/06/03 02:30:59;;;;;;;3.70;1.80;;;;;;;7.12;69.45;99245.80;225306;1277;22564;-69
2023/06/03 02:36:17;;;;;;;;;;;;;;;;;;;;;
2023/06/03 02:41:31;;;;;;;4.70;1.90;;;;;;;6.90;69.76;99265.52;225377;1283;25322;-68
2023/06/03 02:46:36;;;;;;;3.00;1.80;;;;;;;6.81;70.14;99265.67;225493;1283;22544;-68
2023/06/03 02:51:47;;;;;;;2.90;1.50;;;;;;;6.76;70.20;99271.98;225489;1279;23060;-69
2023/06/03 02:56:50;;;;;;;5.70;1.90;;;;;;;6.72;70.21;99270.77;225562;1283;22555;-69
2023/06/03 03:01:52;;;;;;;4.30;2.00;;;;;;;6.69;70.24;99271.61;225517;1279;22575;-69
2023/06/03 03:06:57;;;;;;;3.70;1.80;;;;;;;6.68;70.33;99275.00;225413;1281;22536;-70
2023/06/03 03:11:59;;;;;;;3.80;1.90;;;;;;;6.69;70.43;99278.23;225391;1280;22592;-69
2023/06/03 03:17:05;;;;;;;4.10;1.80;;;;;;;6.74;70.47;99275.69;225388;1283;22879;-69
2023/06/03 03:22:07;;;;;;;3.30;1.60;;;;;;;7.05;70.44;99276.46;225498;1279;22548;-69
2023/06/03 03:27:12;;;;;;;3.90;1.50;;;;;;;7.54;69.83;99277.79;225454;1279;22528;-69
2023/06/03 03:32:19;;;;;;;4.80;1.80;;;;;;;8.09;69.28;99279.23;225372;1281;22592;-69
2023/06/03 03:37:22;;;;;;;6.50;1.80;;;;;;;8.60;68.64;99284.67;225444;1278;22570;-69
2023/06/03 03:42:25;;;;;;;4.20;1.80;;;;;;;9.04;67.83;99292.17;225403;1283;22659;-68
2023/06/03 03:47:28;;;;;;;4.80;1.90;;;;;;;9.45;67.06;99296.41;225415;1281;22530;-68
2023/06/03 03:52:34;;;;;;;4.30;1.80;;;;;;;9.78;66.57;99297.27;225374;1278;22976;-69
2023/06/03 03:57:41;;;;;;;6.40;2.40;;;;;;;10.02;66.05;99296.96;225498;1280;22547;-70
2023/06/03 04:02:53;;;;;;;4.00;2.30;;;;;;;10.14;65.44;99298.59;225338;1281;22659;-70
2023/06/03 04:08:29;;;;;;;3.80;2.50;;;;;;;10.16;65.69;99302.21;225388;1283;22552;-68
2023/06/03 04:13:38;;;;;;;3.20;2.50;;;;;;;10.20;65.35;99305.53;225431;1283;27191;-69
2023/06/03 04:18:46;;;;;;;6.00;3.20;;;;;;;10.14;64.82;99308.95;225371;1283;25415;-67
2023/06/03 04:24:12;;;;;;;5.30;2.70;;;;;;;10.03;64.92;99306.89;225436;1281;22596;-68
2023/06/03 04:29:21;;;;;;;5.90;2.80;;;;;;;9.95;65.00;99310.23;225522;1283;22556;-68
2023/06/03 04:34:29;;;;;;;5.70;3.10;;;;;;;9.83;64.64;99312.40;225407;1283;22542;-68
2023/06/03 04:39:33;;;;;;;6.00;2.80;;;;;;;9.78;64.90;99316.80;225296;1281;22547;-68
2023/06/03 04:44:38;;;;;;;8.10;3.00;;;;;;;9.70;65.03;99313.30;225293;1282;22546;-67
2023/06/03 04:49:42;;;;;;;5.80;2.70;;;;;;;9.67;65.06;99319.50;225460;1281;22557;-69
2023/06/03 04:54:44;;;;;;;5.80;2.60;;;;;;;9.66;65.34;99327.98;225472;1280;22641;-69
2023/06/03 04:59:49;;;;;;;3.90;3.00;;;;;;;9.66;65.33;99326.45;225367;1283;22564;-69
2023/06/03 05:04:53;;;;;;;7.10;3.50;;;;;;;9.70;65.50;99324.64;225380;1281;22533;-69
2023/06/03 05:10:00;;;;;;;7.30;3.50;;;;;;;9.79;65.73;99327.25;225378;1282;22536;-70
2023/06/03 05:15:07;;;;;;;8.60;3.70;;;;;;;9.92;65.93;99328.64;225433;1279;22549;-69
2023/06/03 05:20:33;;;;;;;;;;;;;;;;;;;;;
2023/06/03 05:26:04;;;;;;;5.60;3.40;;;;;;;10.19;65.83;99332.70;225507;1283;22533;-69
2023/06/03 05:31:07;;;;;;;8.20;3.90;;;;;;;10.24;66.07;99332.64;225532;1280;22548;-70
2023/06/03 05:36:35;;;;;;;9.20;4.40;;;;;;;10.34;66.18;99332.63;225371;1283;22532;-68
2023/06/03 05:41:41;;;;;;;6.70;4.40;;;;;;;10.47;65.93;99332.68;225342;1283;22571;-69
2023/06/03 05:46:54;;;;;;;7.30;3.80;;;;;;;10.68;66.56;99334.02;225236;1281;24232;-72
2023/06/03 05:52:02;;;;;;;9.40;4.10;;;;;;;10.89;66.30;99343.20;225180;1283;24248;-72
2023/06/03 05:57:07;;;;;;;7.20;4.30;;;;;;;11.04;66.17;99337.55;225115;1281;22538;-72
2023/06/03 06:02:12;;;;;;;6.90;4.20;;;;;;;11.19;65.97;99346.89;225202;1281;22530;-73
2023/06/03 06:07:14;;;;;;;12.10;6.60;;;;;;;11.32;65.96;99346.89;225107;1281;22559;-73
2023/06/03 06:12:25;;;;;;;7.80;4.90;;;;;;;11.47;66.03;99343.85;225225;1279;22556;-73
2023/06/03 06:17:28;;;;;;;6.00;4.00;;;;;;;11.68;66.21;99347.90;225142;1281;24268;-72
2023/06/03 06:22:31;;;;;;;8.40;4.20;;;;;;;11.82;65.90;99351.48;225421;1281;22544;-72
2023/06/03 06:27:33;;;;;;;6.70;4.20;;;;;;;11.96;65.70;99349.15;225533;1281;22545;-72
2023/06/03 06:32:45;;;;;;;9.50;4.50;;;;;;;12.12;65.75;99349.64;225452;1276;22550;-74
2023/06/03 06:37:55;;;;;;;6.70;3.90;;;;;;;12.26;65.56;99353.39;225468;1281;24271;-73
2023/06/03 06:43:02;;;;;;;6.90;4.00;;;;;;;12.45;65.53;99355.21;225427;1283;23634;-72
2023/06/03 06:48:15;;;;;;;6.30;3.70;;;;;;;12.63;65.22;99354.60;225288;1281;25333;-73
2023/06/03 06:53:21;;;;;;;5.80;3.80;;;;;;;12.78;64.99;99355.39;225317;1283;22548;-73
2023/06/03 06:58:33;;;;;;;4.40;3.20;;;;;;;12.95;64.96;99352.54;225466;1281;23063;-72
2023/06/03 07:03:37;;;;;;;4.90;3.40;;;;;;;13.15;64.97;99355.23;225507;1269;22560;-72
2023/06/03 07:08:39;;;;;;;5.10;3.70;;;;;;;13.30;64.63;99353.75;225060;1265;22562;-73
2023/06/03 07:13:41;;;;;;;6.00;3.90;;;;;;;13.51;64.79;99363.69;225031;1281;23175;-73
2023/06/03 07:18:45;;;;;;;7.10;3.90;;;;;;;13.76;64.57;99368.61;224929;1281;22563;-72
2023/06/03 07:23:47;;;;;;;6.10;3.60;;;;;;;14.02;64.30;99372.41;225047;1281;22540;-73
2023/06/03 07:28:50;;;;;;;4.70;3.20;;;;;;;14.14;63.12;99374.02;225107;1272;22570;-73
2023/06/03 07:33:56;;;;;;;5.10;3.40;;;;;;;14.31;62.78;99371.46;224750;1282;22535;-72
2023/06/03 07:39:08;;;;;;;5.40;3.10;;;;;;;14.53;62.20;99370.48;224839;1281;22557;-72
2023/06/03 07:44:15;;;;;;;5.60;3.70;;;;;;;14.75;62.02;99369.66;225182;1265;22545;-72
2023/06/03 07:49:19;;;;;;;5.60;3.40;;;;;;;15.23;61.89;99378.23;224719;1280;22546;-72
2023/06/03 07:54:21;;;;;;;4.70;3.00;;;;;;;15.68;61.14;99374.38;224874;1275;24301;-72
2023/06/03 07:59:24;;;;;;;5.30;3.10;;;;;;;15.99;59.76;99376.72;225140;1283;22554;-71
2023/06/03 08:04:32;;;;;;;5.80;3.50;;;;;;;16.21;58.69;99375.43;224913;1283;22564;-72
2023/06/03 08:09:35;;;;;;;3.70;2.70;;;;;;;16.40;57.39;99374.39;225101;1283;22574;-71
2023/06/03 08:14:39;;;;;;;4.20;2.60;;;;;;;16.47;57.07;99375.80;225139;1264;22907;-74
2023/06/03 08:19:45;;;;;;;5.20;2.60;;;;;;;16.81;56.22;99374.85;224987;1279;22672;-73
2023/06/03 08:24:47;;;;;;;5.70;2.40;;;;;;;17.15;55.52;99377.32;225059;1278;22527;-73
2023/06/03 08:29:49;;;;;;;4.30;2.90;;;;;;;17.40;53.83;99384.05;224901;1279;22562;-72
2023/06/03 08:34:51;;;;;;;4.30;2.50;;;;;;;17.47;53.57;99388.48;225086;1278;25262;-73
2023/06/03 08:39:54;;;;;;;5.60;3.40;;;;;;;17.59;52.51;99391.79;224993;1279;22543;-73
2023/06/03 08:45:05;;;;;;;6.90;3.10;;;;;;;17.52;51.30;99395.71;225120;1283;25409;-72
2023/06/03 08:50:10;;;;;;;5.60;3.20;;;;;;;17.22;51.43;99397.65;225076;1281;22569;-73
2023/06/03 08:55:15;;;;;;;7.40;3.00;;;;;;;17.15;51.38;99392.23;224975;1265;22552;-71
2023/06/03 09:00:23;;;;;;;4.20;2.20;;;;;;;17.06;50.93;99390.20;225035;1280;22543;-72
2023/06/03 09:05:26;;;;;;;6.50;4.10;;;;;;;17.00;50.33;99391.26;224909;1275;22521;-73
2023/06/03 09:10:31;;;;;;;9.70;3.40;;;;;;;17.09;50.74;99392.43;224983;1265;22564;-72
2023/06/03 09:15:36;;;;;;;6.10;2.70;;;;;;;17.23;50.71;99387.11;224935;1270;22528;-72
2023/06/03 09:20:38;;;;;;;8.30;2.70;;;;;;;17.30;49.59;99379.07;225023;1276;22660;-72
2023/06/03 09:25:41;;;;;;;4.50;2.40;;;;;;;17.26;49.10;99374.27;224896;1279;24812;-72
2023/06/03 09:30:43;;;;;;;4.90;2.40;;;;;;;17.36;49.72;99378.77;226201;1279;22543;-72
2023/06/03 09:36:08;;;;;;;4.60;2.40;;;;;;;17.47;49.09;99376.55;224774;1281;22566;-72
2023/06/03 09:41:18;;;;;;;5.60;2.70;;;;;;;17.54;48.92;99371.88;224929;1277;22939;-72
2023/06/03 09:46:21;;;;;;;4.00;2.20;;;;;;;17.58;48.32;99371.81;224423;1281;23435;-72
2023/06/03 09:51:42;;;;;;;4.70;2.40;;;;;;;17.64;48.34;99362.29;224597;1265;24953;-72
2023/06/03 09:56:45;;;;;;;5.90;2.80;;;;;;;17.68;48.06;99351.59;224629;1276;24404;-72
2023/06/03 10:01:49;;;;;;;7.50;2.40;;;;;;;17.74;47.99;99356.62;224698;1277;22577;-72
2023/06/03 10:07:10;;;;;;;5.90;2.60;;;;;;;17.88;48.27;99352.91;224709;1264;22544;-72
2023/06/03 10:12:27;;;;;;;4.30;2.10;;;;;;;18.11;48.32;99345.92;224683;1269;22589;-72
2023/06/03 10:17:29;;;;;;;3.30;1.90;;;;;;;18.35;47.98;99344.33;224875;1273;24704;-72
2023/06/03 10:22:32;;;;;;;7.00;4.80;;;;;;;18.44;47.83;99342.44;224980;1277;22563;-72
2023/06/03 10:27:35;;;;;;;5.50;2.40;;;;;;;18.57;47.32;99338.52;225005;1271;22571;-72
2023/06/03 10:32:44;;;;;;;4.90;1.90;;;;;;;18.65;46.61;99333.80;224894;1282;22625;-72
2023/06/03 10:37:53;;;;;;;8.00;1.90;;;;;;;18.68;46.20;99337.63;219557;1304;544909;-72
2023/06/03 10:42:56;;;;;;;3.40;2.10;;;;;;;18.73;46.44;99331.05;224498;1284;23068;-71
2023/06/03 10:48:05;;;;;;;3.90;1.80;;;;;;;18.90;46.56;99323.48;224245;1284;231411;-71
2023/06/03 10:53:35;;;;;;;4.00;2.30;;;;;;;19.03;46.45;99319.45;224853;1278;23122;-71
2023/06/03 10:58:42;;;;;;;5.50;2.00;;;;;;;19.10;46.24;99316.75;224698;1279;22597;-71
2023/06/03 11:03:53;;;;;;;5.60;2.20;;;;;;;19.25;46.42;99313.52;224546;1282;24802;-72
2023/06/03 11:09:03;;;;;;;4.40;2.00;;;;;;;19.32;45.74;99314.61;224901;1285;22635;-72
2023/06/03 11:14:09;;;;;;;3.10;2.00;;;;;;;19.28;44.89;99309.64;225120;1284;22563;-72
2023/06/03 11:19:45;;;;;;;3.70;1.90;;;;;;;19.27;44.98;99305.64;225214;1284;22550;-70
2023/06/03 11:24:47;;;;;;;3.00;1.70;;;;;;;19.24;44.72;99305.73;225049;1278;22549;-72
2023/06/03 11:29:49;;;;;;;3.80;1.90;;;;;;;19.25;44.49;99312.89;225150;1285;24897;-72
2023/06/03 11:35:04;;;;;;;1.90;1.50;;;;;;;19.37;44.29;99306.21;225102;1279;22554;-71
2023/06/03 11:40:16;;;;;;;3.20;2.00;;;;;;;19.55;44.48;99314.80;225548;1281;24229;-72
2023/06/03 11:45:21;;;;;;;2.90;1.50;;;;;;;19.69;44.28;99314.05;225662;1281;22539;-71
2023/06/03 11:50:43;;;;;;;3.10;1.40;;;;;;;19.83;43.99;99307.33;225662;1281;22546;-72
2023/06/03 11:55:45;;;;;;;1.80;1.50;;;;;;;19.98;43.82;99297.80;225624;1279;22656;-71
2023/06/03 12:00:48;;;;;;;2.70;1.70;;;;;;;20.04;43.98;99299.96;225593;1280;22528;-71
2023/06/03 12:05:53;;;;;;;4.50;1.60;;;;;;;19.96;43.35;99295.51;225560;1279;24417;-72
2023/06/03 12:10:55;;;;;;;4.30;1.60;;;;;;;19.91;43.38;99288.39;225584;1281;22539;-72
2023/06/03 12:15:58;;;;;;;5.30;2.30;;;;;;;19.97;43.53;99290.70;225683;1278;22540;-72
2023/06/03 12:21:26;;;;;;;2.60;1.40;;;;;;;20.14;43.56;99291.58;225637;1281;23057;-72
2023/06/03 12:26:37;;;;;;;3.50;1.70;;;;;;;20.19;42.80;99282.71;225487;1281;22520;-71
2023/06/03 12:31:41;;;;;;;2.40;1.40;;;;;;;20.12;42.75;99281.13;225379;1281;22535;-72
2023/06/03 12:36:49;;;;;;;2.70;1.50;;;;;;;20.01;42.07;99274.58;225671;1280;22514;-72
2023/06/03 12:41:53;;;;;;;3.00;1.80;;;;;;;19.92;42.79;99265.58;225673;1281;22526;-71
2023/06/03 12:47:02;;;;;;;7.70;1.70;;;;;;;20.11;42.83;99253.32;225707;1281;22542;-72
2023/06/03 12:52:12;;;;;;;2.80;1.40;;;;;;;20.26;42.22;99253.61;225700;1279;22603;-72
2023/06/03 12:57:22;;;;;;;5.90;1.90;;;;;;;20.16;41.49;99246.70;225577;1281;22551;-71
2023/06/03 13:02:24;;;;;;;2.70;1.20;;;;;;;20.11;42.10;99244.04;225431;1281;24324;-72
2023/06/03 13:07:27;;;;;;;2.80;1.30;;;;;;;20.33;42.47;99241.10;225554;1281;22540;-72
2023/06/03 13:12:31;;;;;;;6.00;2.00;;;;;;;20.52;42.08;99238.06;225585;1281;22554;-72
2023/06/03 13:17:35;;;;;;;5.60;1.50;;;;;;;20.49;41.97;99230.71;225593;1281;22640;-72
2023/06/03 13:22:40;;;;;;;4.70;1.90;;;;;;;20.50;42.17;99227.02;226834;1275;24234;-71
2023/06/03 13:27:42;;;;;;;2.30;1.40;;;;;;;20.52;41.87;99221.27;226847;1273;22651;-72
2023/06/03 13:32:45;;;;;;;5.50;1.20;;;;;;;20.56;41.86;99224.62;226764;1274;22534;-72
2023/06/03 13:37:47;;;;;;;3.80;1.50;;;;;;;20.63;41.57;99220.17;226641;1272;22551;-72
2023/06/03 13:42:49;;;;;;;2.90;1.20;;;;;;;20.75;41.55;99217.31;226741;1273;22559;-71
2023/06/03 13:47:51;;;;;;;3.20;1.40;;;;;;;20.78;41.00;99219.84;226638;1275;24203;-71
2023/06/03 13:52:54;;;;;;;1.90;1.50;;;;;;;20.75;41.16;99210.35;226707;1274;23449;-72
2023/06/03 13:57:56;;;;;;;2.50;1.70;;;;;;;20.85;41.32;99210.72;226768;1275;22530;-71
2023/06/03 14:02:59;;;;;;;3.10;1.60;;;;;;;20.84;40.80;99205.59;226611;1276;22537;-71
2023/06/03 14:08:04;;;;;;;3.30;1.60;;;;;;;20.84;40.46;99203.66;226603;1270;22546;-71
2023/06/03 14:13:05;;;;;;;3.30;1.70;;;;;;;20.82;40.40;99202.27;226632;1273;22560;-71
2023/06/03 14:18:07;;;;;;;4.40;1.70;;;;;;;20.78;39.81;99199.16;226457;1275;22522;-71
2023/06/03 14:23:10;;;;;;;3.80;1.70;;;;;;;20.74;39.90;99196.85;226795;1271;22551;-71
2023/06/03 14:28:12;;;;;;;3.70;1.60;;;;;;;20.70;39.90;99192.15;226962;1275;23300;-71
2023/06/03 14:33:17;;;;;;;3.60;1.80;;;;;;;20.68;40.07;99183.15;226986;1274;22541;-71
2023/06/03 14:38:20;;;;;;;2.90;1.40;;;;;;;20.71;40.02;99179.02;226780;1272;22546;-71
2023/06/03 14:43:22;;;;;;;2.50;1.60;;;;;;;20.72;39.94;99173.17;226893;1270;22549;-71
2023/06/03 14:48:25;;;;;;;2.30;1.50;;;;;;;20.76;40.11;99173.26;226850;1271;22533;-71
2023/06/03 14:53:28;;;;;;;3.00;1.60;;;;;;;20.83;40.03;99167.65;226757;1274;24296;-71
2023/06/03 14:58:30;;;;;;;2.90;1.40;;;;;;;20.87;39.79;99170.02;226824;1273;22542;-71
2023/06/03 15:03:33;;;;;;;2.10;1.60;;;;;;;20.85;39.94;99164.14;226730;1274;22542;-71
2023/06/03 15:08:35;;;;;;;1.60;1.30;;;;;;;20.86;40.47;99155.94;226964;1270;25350;-72
2023/06/03 15:13:39;;;;;;;3.40;1.30;;;;;;;20.92;40.22;99152.48;227002;1273;22530;-71
2023/06/03 15:18:42;;;;;;;7.80;1.80;;;;;;;20.95;40.04;99152.20;226823;1273;22534;-72
2023/06/03 15:23:44;;;;;;;2.60;1.50;;;;;;;20.87;39.65;99151.70;226991;1271;22549;-72
2023/06/03 15:28:47;;;;;;;3.60;1.30;;;;;;;20.84;39.92;99140.70;226841;1273;22467;-71
2023/06/03 15:33:49;;;;;;;1.90;1.40;;;;;;;20.83;39.99;99142.77;226808;1273;22538;-71
2023/06/03 15:38:51;;;;;;;2.80;1.50;;;;;;;20.75;39.94;99139.66;226936;1274;22537;-71
2023/06/03 15:43:55;;;;;;;2.90;1.40;;;;;;;20.72;39.96;99131.50;226897;1273;22562;-70
2023/06/03 15:48:57;;;;;;;3.00;1.40;;;;;;;20.63;39.48;99129.85;226943;1271;22549;-72
2023/06/03 15:53:59;;;;;;;3.10;1.30;;;;;;;20.55;39.95;99124.73;227040;1274;22541;-71
2023/06/03 15:59:01;;;;;;;2.20;1.30;;;;;;;20.56;40.45;99123.17;226771;1273;22563;-71
2023/06/03 16:04:04;;;;;;;2.10;1.30;;;;;;;20.47;40.17;99120.02;226832;1270;22603;-71
2023/06/03 16:09:06;;;;;;;1.50;1.20;;;;;;;20.40;40.12;99115.94;226772;1270;22530;-73
2023/06/03 16:14:08;;;;;;;2.80;1.30;;;;;;;20.32;40.30;99114.71;226833;1274;22539;-72
2023/06/03 16:19:10;;;;;;;2.70;1.00;;;;;;;20.25;40.48;99111.42;226743;1274;22585;-71
2023/06/03 16:24:14;;;;;;;2.50;0.90;;;;;;;20.22;40.88;99109.64;226763;1273;22553;-71
2023/06/03 16:29:16;;;;;;;2.60;1.20;;;;;;;20.23;41.06;99112.98;226724;1273;22572;-71
2023/06/03 16:34:18;;;;;;;1.10;0.90;;;;;;;20.15;40.72;99108.45;226747;1271;25402;-71
2023/06/03 16:39:20;;;;;;;3.00;1.40;;;;;;;20.02;40.96;99112.85;226989;1274;22545;-71
2023/06/03 16:44:22;;;;;;;5.60;1.10;;;;;;;19.89;40.85;99109.16;226764;1269;22543;-71
2023/06/03 16:49:25;;;;;;;3.80;1.10;;;;;;;19.78;40.84;99106.27;226797;1274;22529;-71
2023/06/03 16:54:27;;;;;;;4.40;1.40;;;;;;;19.73;40.85;99104.46;226953;1272;22533;-71
2023/06/03 16:59:29;;;;;;;1.30;1.00;;;;;;;19.66;40.59;99109.33;226952;1270;22557;-70
2023/06/03 17:04:31;;;;;;;2.50;1.20;;;;;;;19.60;41.06;99112.24;226940;1270;22543;-71
2023/06/03 17:09:33;;;;;;;3.40;1.30;;;;;;;19.60;41.56;99110.98;226705;1274;22556;-71
2023/06/03 17:14:35;;;;;;;2.30;1.00;;;;;;;20.45;41.76;99108.37;226744;1273;22633;-71
2023/06/03 17:19:40;;;;;;;2.20;1.30;;;;;;;21.72;41.03;99107.85;226798;1273;25891;-71
2023/06/03 17:24:42;;;;;;;3.00;1.40;;;;;;;22.91;40.47;99100.20;227005;1270;22513;-71
2023/06/03 17:29:44;;;;;;;2.30;1.60;;;;;;;23.81;39.35;99103.22;226929;1270;22532;-72
2023/06/03 17:34:47;;;;;;;3.20;1.70;;;;;;;24.55;38.88;99100.80;226725;1273;26930;-71
2023/06/03 17:39:49;;;;;;;2.50;1.90;;;;;;;24.74;38.13;99099.11;226772;1273;22554;-71
2023/06/03 17:44:51;;;;;;;3.30;1.60;;;;;;;24.31;37.66;99095.11;226789;1272;22556;-72
2023/06/03 17:49:53;;;;;;;4.50;2.30;;;;;;;23.27;37.73;99101.96;226974;1270;22530;-72
2023/06/03 17:54:55;;;;;;;2.00;1.60;;;;;;;22.08;38.60;99110.17;226750;1274;23641;-71
2023/06/03 17:59:57;;;;;;;4.50;1.80;;;;;;;20.94;39.35;99105.15;226979;1274;22544;-70
2023/06/03 18:04:59;;;;;;;3.50;1.50;;;;;;;20.00;40.68;99108.98;226606;1274;22526;-71
2023/06/03 18:10:03;;;;;;;3.60;1.50;;;;;;;19.33;41.94;99113.91;226756;1272;24227;-71
2023/06/03 18:15:06;;;;;;;1.50;1.10;;;;;;;18.67;43.08;99117.80;226792;1268;22533;-71
2023/06/03 18:20:09;;;;;;;1.40;1.10;;;;;;;18.18;44.01;99123.21;226956;1271;22536;-71
2023/06/03 18:25:11;;;;;;;5.10;1.60;;;;;;;17.68;44.42;99125.99;226938;1274;22548;-71
2023/06/03 18:30:13;;;;;;;3.80;1.40;;;;;;;17.26;45.41;99127.34;226813;1274;22884;-71
2023/06/03 18:35:15;;;;;;;1.80;1.20;;;;;;;16.84;46.14;99127.67;226815;1274;22524;-70
2023/06/03 18:40:17;;;;;;;9.20;4.60;;;;;;;16.46;46.91;99131.10;226781;1274;22635;-70
2023/06/03 18:45:20;;;;;;;4.30;1.70;;;;;;;16.12;47.32;99138.84;226952;1268;22533;-70
2023/06/03 18:50:22;;;;;;;3.40;1.80;;;;;;;15.81;48.20;99146.32;227070;1274;22615;-70
2023/06/03 18:55:24;;;;;;;7.00;1.90;;;;;;;15.55;48.67;99147.41;226803;1269;22565;-71
2023/06/03 19:00:38;;;;;;;3.90;1.90;;;;;;;15.28;48.97;99147.52;226832;1273;22530;-70
2023/06/03 19:05:40;;;;;;;5.50;2.10;;;;;;;15.02;49.36;99149.71;226821;1274;22538;-71
2023/06/03 19:10:43;;;;;;;3.50;2.00;;;;;;;14.80;49.66;99153.48;226971;1270;22537;-71
2023/06/03 19:15:49;;;;;;;2.70;1.60;;;;;;;14.60;50.38;99162.63;226830;1268;22556;-70
2023/06/03 19:20:51;;;;;;;3.30;1.60;;;;;;;14.36;50.72;99165.41;227053;1268;25325;-70
2023/06/03 19:25:53;;;;;;;4.00;1.70;;;;;;;14.14;51.16;99175.91;226793;1274;22529;-71
2023/06/03 19:30:55;;;;;;;8.80;1.80;;;;;;;13.95;51.47;99179.20;226781;1270;22530;-71
2023/06/03 19:35:58;;;;;;;3.30;1.90;;;;;;;13.76;51.73;99190.17;226733;1253;22577;-71
2023/06/03 19:41:00;;;;;;;3.90;1.70;;;;;;;13.56;52.32;99196.50;226751;1272;22557;-71
2023/06/03 19:46:02;;;;;;;4.60;1.70;;;;;;;13.35;52.53;99198.06;226790;1272;22530;-71
2023/06/03 19:51:04;;;;;;;4.40;2.20;;;;;;;13.16;52.98;99195.64;226940;1271;22533;-70
2023/06/03 19:56:07;;;;;;;3.10;2.20;;;;;;;12.99;53.24;99204.41;226953;1270;22529;-71
2023/06/03 20:01:09;;;;;;;3.30;2.40;;;;;;;12.86;53.69;99217.21;226847;1273;23271;-70
2023/06/03 20:06:12;;;;;;;4.20;2.00;;;;;;;12.77;53.99;99221.23;226770;1272;22540;-71
2023/06/03 20:11:14;;;;;;;4.50;2.30;;;;;;;12.65;54.21;99225.46;226825;1270;22529;-70
2023/06/03 20:16:17;;;;;;;3.90;2.40;;;;;;;12.53;54.48;99225.80;226742;1274;22521;-70
2023/06/03 20:21:20;;;;;;;6.30;2.50;;;;;;;12.39;54.64;99221.13;226969;1267;25289;-70
2023/06/03 20:26:23;;;;;;;5.40;2.30;;;;;;;12.23;54.97;99222.27;226812;1273;22544;-70
2023/06/03 20:31:26;;;;;;;3.90;2.40;;;;;;;12.05;55.20;99222.71;226728;1274;22529;-71
2023/06/03 20:36:30;;;;;;;3.30;1.90;;;;;;;11.89;55.54;99226.45;226804;1268;22542;-71
2023/06/03 20:41:33;;;;;;;5.10;2.50;;;;;;;11.76;55.93;99225.83;226777;1273;22610;-71
2023/06/03 20:46:35;;;;;;;5.70;2.90;;;;;;;11.65;56.27;99226.27;226883;1270;22551;-70
2023/06/03 20:51:37;;;;;;;6.00;2.80;;;;;;;11.55;56.62;99229.57;226790;1274;22544;-70
2023/06/03 20:56:40;;;;;;;4.90;3.10;;;;;;;11.45;56.73;99227.30;226915;1274;22547;-71
2023/06/03 21:01:42;;;;;;;5.60;2.90;;;;;;;11.33;56.74;99227.84;226768;1271;22539;-70
2023/06/03 21:06:44;;;;;;;5.90;3.30;;;;;;;11.19;57.03;99226.48;226994;1270;22574;-69
2023/06/03 21:11:46;;;;;;;4.50;3.00;;;;;;;11.06;57.17;99223.80;226943;1268;22602;-70
2023/06/03 21:16:49;;;;;;;5.30;3.40;;;;;;;10.95;57.39;99234.98;226832;1273;22537;-69
2023/06/03 21:21:51;;;;;;;5.80;3.40;;;;;;;10.85;57.48;99230.34;226866;1272;22615;-70
2023/06/03 21:26:53;;;;;;;5.70;3.50;;;;;;;10.80;57.66;99231.78;226793;1273;22557;-70
2023/06/03 21:31:55;;;;;;;6.60;3.20;;;;;;;10.79;57.75;99227.70;226867;1271;22534;-69
2023/06/03 21:36:58;;;;;;;4.30;3.10;;;;;;;10.79;57.93;99224.32;226757;1271;22518;-70
2023/06/03 21:42:01;;;;;;;5.00;2.80;;;;;;;10.77;57.74;99226.85;226791;1272;22538;-70
2023/06/03 21:47:03;;;;;;;3.40;2.40;;;;;;;10.74;58.10;99223.49;226727;1274;22565;-70
2023/06/03 21:52:08;;;;;;;5.30;2.70;;;;;;;10.74;58.26;99226.02;226934;1270;26945;-70
2023/06/03 21:57:13;;;;;;;4.50;2.60;;;;;;;10.65;58.13;99221.06;226773;1274;22588;-70
2023/06/03 22:02:24;;;;;;;5.60;2.80;;;;;;;10.50;58.47;99221.70;226820;1272;22538;-69
2023/06/03 22:07:26;;;;;;;4.00;2.50;;;;;;;10.35;59.08;99218.25;226798;1268;22526;-70
2023/06/03 22:12:29;;;;;;;6.00;2.60;;;;;;;10.20;59.47;99220.42;226748;1272;22529;-70
2023/06/03 22:17:34;;;;;;;6.30;2.90;;;;;;;10.09;59.61;99224.48;226907;1270;22529;-70
2023/06/03 22:22:36;;;;;;;4.50;2.70;;;;;;;9.97;60.09;99218.94;226909;1270;22730;-70
2023/06/03 22:27:57;;;;;;;7.50;2.70;;;;;;;9.87;60.01;99217.88;226849;1270;22483;-70
2023/06/03 22:33:22;;;;;;;5.00;3.40;;;;;;;9.76;60.56;99216.21;226889;1274;22530;-69
2023/06/03 22:38:24;;;;;;;3.70;3.10;;;;;;;9.69;60.61;99216.07;226951;1268;22543;-70
2023/06/03 22:43:27;;;;;;;8.00;3.60;;;;;;;9.61;61.12;99212.36;226850;1271;22530;-70
2023/06/03 22:48:32;;;;;;;4.80;3.30;;;;;;;9.54;61.06;99206.80;226519;1271;260654;-70
2023/06/03 22:53:42;;;;;;;6.20;3.20;;;;;;;9.47;61.03;99205.00;226861;1269;22539;-70
2023/06/03 22:58:56;;;;;;;4.50;3.40;;;;;;;9.44;61.21;99206.45;226794;1274;22538;-70
2023/06/03 23:04:01;;;;;;;6.00;3.90;;;;;;;9.41;61.35;99196.96;226871;1273;22522;-70
2023/06/03 23:09:06;;;;;;;5.10;3.30;;;;;;;9.34;61.08;99196.03;226861;1274;22596;-70
2023/06/03 23:14:16;;;;;;;3.50;3.00;;;;;;;9.26;61.34;99194.27;226730;1274;22514;-69
2023/06/03 23:19:22;;;;;;;3.80;2.90;;;;;;;9.23;61.32;99194.56;226877;1270;22537;-70
2023/06/03 23:24:26;;;;;;;4.20;2.80;;;;;;;9.27;61.85;99188.57;226908;1266;22533;-69
2023/06/03 23:29:29;;;;;;;4.50;2.80;;;;;;;9.29;61.91;99192.59;226790;1271;24938;-69
2023/06/03 23:34:43;;;;;;;5.00;2.80;;;;;;;9.26;62.01;99194.05;226874;1274;22530;-70
2023/06/03 23:39:47;;;;;;;4.20;2.70;;;;;;;9.19;62.13;99196.77;226889;1274;22579;-69
2023/06/03 23:44:55;;;;;;;3.50;2.90;;;;;;;9.10;62.19;99193.55;226792;1274;22518;-69
2023/06/03 23:49:59;;;;;;;4.10;2.50;;;;;;;9.01;62.08;99184.59;226946;1270;22529;-70